Time;durP1;ratioP1;P1;durP2;ratioP2;P2;SDS_P1;SDS_P2;PMS_P1;PMS_P2;Temp;Humidity;BMP_temperature;BMP_pressure;BME280_temperature;BME280_humidity;BME280_pressure;Samples;Min_cycle;Max_cycle;Signal;HPM_P1;HPM_P2
2021/08/27 00:02:17;;;;;;;8.27;7.40;;;;;;;;;;10287309;28;20049;-60
2021/08/27 00:07:15;;;;;;;7.72;7.03;;;;;;;;;;10289454;28;20044;-60
2021/08/27 00:12:14;;;;;;;7.88;7.07;;;;;;;;;;10305981;28;20075;-60
2021/08/27 00:17:13;;;;;;;8.82;7.97;;;;;;;;;;10288121;28;20051;-61
2021/08/27 00:22:12;;;;;;;9.05;8.25;;;;;;;;;;10287710;28;20076;-60
2021/08/27 00:27:10;;;;;;;8.77;7.97;;;;;;;;;;10276875;28;20051;-61
2021/08/27 00:32:09;;;;;;;9.40;8.45;;;;;;;;;;10276231;28;20088;-61
2021/08/27 00:37:08;;;;;;;9.98;9.10;;;;;;;;;;10275929;28;20048;-60
2021/08/27 00:42:07;;;;;;;8.93;8.13;;;;;;;;;;10276413;28;20045;-60
2021/08/27 00:47:05;;;;;;;10.95;8.32;;;;;;;;;;10275384;28;20175;-61
2021/08/27 00:52:04;;;;;;;9.55;8.68;;;;;;;;;;10275822;28;20268;-61
2021/08/27 00:57:06;;;;;;;11.55;10.38;;;;;;;;;;10275951;28;20056;-61
2021/08/27 01:02:05;;;;;;;8.98;8.13;;;;;;;;;;10275685;28;20417;-61
2021/08/27 01:07:06;;;;;;;10.25;8.55;;;;;;;;;;10275344;28;20083;-61
2021/08/27 01:12:08;;;;;;;10.30;9.40;;;;;;;;;;10275468;28;20084;-60
2021/08/27 01:17:08;;;;;;;12.05;10.90;;;;;;;;;;10275026;28;20049;-61
2021/08/27 01:22:19;;;;;;;11.85;9.45;;;;;;;;;;10275209;28;20048;-61
2021/08/27 01:27:19;;;;;;;10.05;9.15;;;;;;;;;;10275335;28;20044;-60
2021/08/27 01:32:21;;;;;;;10.35;9.15;;;;;;;;;;10274658;28;20079;-61
2021/08/27 01:37:23;;;;;;;10.23;8.90;;;;;;;;;;10275121;28;20056;-61
2021/08/27 01:42:22;;;;;;;11.25;10.25;;;;;;;;;;10275371;28;20060;-62
2021/08/27 01:47:24;;;;;;;10.88;9.80;;;;;;;;;;10274555;28;20068;-62
2021/08/27 01:52:24;;;;;;;9.77;8.88;;;;;;;;;;10274492;28;20077;-62
2021/08/27 01:57:22;;;;;;;9.07;8.13;;;;;;;;;;10276369;28;20418;-61
2021/08/27 02:02:21;;;;;;;12.88;8.68;;;;;;;;;;10282349;28;20429;-61
2021/08/27 02:07:20;;;;;;;9.90;8.77;;;;;;;;;;10281455;28;20049;-62
2021/08/27 02:12:19;;;;;;;9.98;9.07;;;;;;;;;;10281483;28;20490;-61
2021/08/27 02:17:18;;;;;;;11.13;10.02;;;;;;;;;;10281350;28;20407;-62
2021/08/27 02:22:18;;;;;;;13.50;9.82;;;;;;;;;;10281373;28;20494;-61
2021/08/27 02:27:17;;;;;;;14.65;9.32;;;;;;;;;;10281053;28;20037;-61
2021/08/27 02:32:17;;;;;;;11.30;10.20;;;;;;;;;;10280778;28;20076;-61
2021/08/27 02:37:16;;;;;;;10.85;9.88;;;;;;;;;;10280725;28;20041;-61
2021/08/27 02:42:15;;;;;;;10.93;9.55;;;;;;;;;;10280663;28;20079;-62
2021/08/27 02:47:14;;;;;;;13.60;9.68;;;;;;;;;;10279859;28;20529;-61
2021/08/27 02:52:19;;;;;;;11.43;10.10;;;;;;;;;;10279711;28;20079;-61
2021/08/27 02:57:19;;;;;;;10.88;8.88;;;;;;;;;;10279487;28;20076;-61
2021/08/27 03:02:17;;;;;;;10.15;9.13;;;;;;;;;;10283818;28;20081;-61
2021/08/27 03:07:19;;;;;;;9.63;8.63;;;;;;;;;;10296408;28;20048;-61
2021/08/27 03:12:19;;;;;;;10.52;9.18;;;;;;;;;;10300833;28;20501;-61
2021/08/27 03:17:19;;;;;;;17.75;10.70;;;;;;;;;;10300104;28;20041;-61
2021/08/27 03:22:21;;;;;;;11.85;10.65;;;;;;;;;;10293358;28;20437;-61
2021/08/27 03:27:22;;;;;;;11.07;8.82;;;;;;;;;;10302036;28;20064;-62
2021/08/27 03:32:21;;;;;;;16.67;9.77;;;;;;;;;;10297695;28;20079;-61
2021/08/27 03:37:21;;;;;;;24.98;11.73;;;;;;;;;;10289010;28;20069;-62
2021/08/27 03:42:20;;;;;;;15.88;11.40;;;;;;;;;;10304989;28;20087;-62
2021/08/27 03:47:18;;;;;;;15.55;13.93;;;;;;;;;;10314459;28;20080;-62
2021/08/27 03:52:17;;;;;;;13.48;11.35;;;;;;;;;;10315790;28;20075;-62
2021/08/27 03:57:17;;;;;;;13.45;12.05;;;;;;;;;;10315963;28;20071;-61
2021/08/27 04:02:15;;;;;;;11.85;10.65;;;;;;;;;;10317746;28;20516;-61
2021/08/27 04:07:14;;;;;;;11.05;9.95;;;;;;;;;;10317538;28;20071;-61
2021/08/27 04:12:12;;;;;;;12.07;9.48;;;;;;;;;;10317461;28;20490;-61
2021/08/27 04:17:13;;;;;;;13.63;11.57;;;;;;;;;;10317312;28;20083;-61
2021/08/27 04:22:12;;;;;;;56.97;41.50;;;;;;;;;;10316893;28;20081;-61
2021/08/27 04:27:10;;;;;;;18.05;12.98;;;;;;;;;;10317507;28;20051;-61
2021/08/27 04:32:08;;;;;;;16.45;12.95;;;;;;;;;;10316916;28;20080;-62
2021/08/27 04:37:08;;;;;;;17.08;12.23;;;;;;;;;;10317037;28;20041;-61
2021/08/27 04:42:06;;;;;;;14.98;13.45;;;;;;;;;;10317000;28;20047;-61
2021/08/27 04:47:05;;;;;;;15.75;11.90;;;;;;;;;;10312413;28;20084;-62
2021/08/27 04:52:03;;;;;;;14.98;11.57;;;;;;;;;;10313399;28;20536;-62
2021/08/27 04:57:03;;;;;;;16.08;14.13;;;;;;;;;;10312017;28;20509;-62
2021/08/27 05:02:02;;;;;;;16.15;11.00;;;;;;;;;;10315520;28;20052;-62
2021/08/27 05:07:01;;;;;;;11.85;10.05;;;;;;;;;;10316388;28;20486;-62
2021/08/27 05:11:59;;;;;;;19.45;12.15;;;;;;;;;;10316011;28;20091;-62
2021/08/27 05:16:59;;;;;;;27.05;15.20;;;;;;;;;;10315954;28;20043;-61
2021/08/27 05:21:58;;;;;;;20.83;14.65;;;;;;;;;;10316057;28;20052;-62
2021/08/27 05:26:57;;;;;;;16.55;12.35;;;;;;;;;;10316058;28;20041;-61
2021/08/27 05:31:55;;;;;;;18.02;12.52;;;;;;;;;;10316789;28;20461;-61
2021/08/27 05:36:55;;;;;;;17.85;12.10;;;;;;;;;;10323604;28;20472;-61
2021/08/27 05:41:53;;;;;;;15.20;12.35;;;;;;;;;;10323406;28;20047;-61
2021/08/27 05:46:51;;;;;;;14.68;12.63;;;;;;;;;;10322623;28;20088;-61
2021/08/27 05:51:50;;;;;;;17.00;12.57;;;;;;;;;;10322780;28;20080;-61
2021/08/27 05:56:49;;;;;;;13.45;12.15;;;;;;;;;;10322746;28;20040;-61
2021/08/27 06:01:48;;;;;;;14.88;12.05;;;;;;;;;;10322680;28;20049;-61
2021/08/27 06:06:48;;;;;;;16.30;12.77;;;;;;;;;;10320995;28;20045;-61
2021/08/27 06:11:46;;;;;;;18.92;13.65;;;;;;;;;;10322447;28;20083;-61
2021/08/27 06:16:46;;;;;;;19.30;14.18;;;;;;;;;;10322146;28;20056;-61
2021/08/27 06:21:44;;;;;;;17.77;14.38;;;;;;;;;;10321839;28;20079;-61
2021/08/27 06:26:43;;;;;;;17.58;14.35;;;;;;;;;;10321676;28;20047;-61
2021/08/27 06:31:41;;;;;;;16.60;14.38;;;;;;;;;;10321202;28;20065;-61
2021/08/27 06:36:41;;;;;;;24.40;14.07;;;;;;;;;;10321336;28;20052;-61
2021/08/27 06:41:39;;;;;;;17.90;15.10;;;;;;;;;;10321072;28;20075;-61
2021/08/27 06:46:37;;;;;;;20.20;14.75;;;;;;;;;;10320048;28;20084;-61
2021/08/27 06:51:36;;;;;;;21.73;15.50;;;;;;;;;;10320355;28;20079;-61
2021/08/27 06:56:35;;;;;;;16.58;14.43;;;;;;;;;;10320683;28;20095;-61
2021/08/27 07:01:34;;;;;;;21.40;13.82;;;;;;;;;;10320515;28;20490;-61
2021/08/27 07:06:33;;;;;;;22.98;15.50;;;;;;;;;;10319990;28;20037;-61
2021/08/27 07:11:31;;;;;;;17.83;14.68;;;;;;;;;;10320255;28;20052;-61
2021/08/27 07:16:31;;;;;;;18.08;14.82;;;;;;;;;;10319882;28;20174;-61
2021/08/27 07:21:29;;;;;;;16.17;13.85;;;;;;;;;;10319470;28;20041;-61
2021/08/27 07:26:27;;;;;;;16.00;12.57;;;;;;;;;;10319561;28;20056;-61
2021/08/27 07:31:26;;;;;;;18.08;11.90;;;;;;;;;;10319211;28;20044;-61
2021/08/27 07:36:25;;;;;;;14.02;12.52;;;;;;;;;;10318715;28;20083;-61
2021/08/27 07:41:24;;;;;;;15.55;12.63;;;;;;;;;;10317949;28;20486;-62
2021/08/27 07:46:22;;;;;;;14.18;12.60;;;;;;;;;;10318362;28;20061;-61
2021/08/27 07:51:20;;;;;;;15.23;12.27;;;;;;;;;;10318282;28;20083;-62
2021/08/27 07:56:20;;;;;;;14.40;11.48;;;;;;;;;;10317328;28;20548;-60
2021/08/27 08:01:18;;;;;;;13.07;11.77;;;;;;;;;;10318009;28;20057;-61
2021/08/27 08:06:17;;;;;;;17.98;10.13;;;;;;;;;;10317596;28;20063;-62
2021/08/27 08:11:16;;;;;;;13.45;9.40;;;;;;;;;;10317470;28;20044;-62
2021/08/27 08:16:15;;;;;;;14.35;9.60;;;;;;;;;;10317013;28;20080;-62
2021/08/27 08:21:15;;;;;;;13.63;9.85;;;;;;;;;;10317161;28;20048;-61
2021/08/27 08:26:13;;;;;;;8.95;8.13;;;;;;;;;;10317514;28;20036;-61
2021/08/27 08:31:17;;;;;;;9.52;8.63;;;;;;;;;;10316671;28;20083;-61
2021/08/27 08:36:17;;;;;;;24.95;19.58;;;;;;;;;;10317014;28;20044;-61
2021/08/27 08:41:16;;;;;;;11.45;8.90;;;;;;;;;;10317093;28;20501;-61
2021/08/27 08:46:15;;;;;;;9.30;8.50;;;;;;;;;;10316180;28;20068;-62
2021/08/27 08:51:14;;;;;;;13.40;10.45;;;;;;;;;;10317063;28;20049;-62
2021/08/27 08:56:14;;;;;;;12.10;10.30;;;;;;;;;;10316601;28;20086;-60
2021/08/27 09:01:17;;;;;;;11.15;9.88;;;;;;;;;;10316166;28;20051;-61
2021/08/27 09:06:16;;;;;;;9.73;8.63;;;;;;;;;;10317912;28;20409;-62
2021/08/27 09:11:17;;;;;;;10.85;9.85;;;;;;;;;;10324787;28;20045;-62
2021/08/27 09:16:16;;;;;;;10.13;9.15;;;;;;;;;;10324156;28;20075;-60
2021/08/27 09:21:28;;;;;;;10.40;9.27;;;;;;;;;;10324414;28;20053;-61
2021/08/27 09:26:37;;;;;;;11.68;10.50;;;;;;;;;;10324177;28;20080;-61
2021/08/27 09:31:36;;;;;;;9.50;8.70;;;;;;;;;;10323659;28;20477;-61
2021/08/27 09:36:34;;;;;;;10.80;9.00;;;;;;;;;;10324087;28;20075;-61
2021/08/27 09:41:33;;;;;;;9.95;8.38;;;;;;;;;;10323361;28;20066;-61
2021/08/27 09:46:33;;;;;;;10.77;9.77;;;;;;;;;;10322934;28;20056;-62
2021/08/27 09:51:42;;;;;;;11.32;9.68;;;;;;;;;;10323674;28;20044;-61
2021/08/27 09:56:44;;;;;;;12.68;11.45;;;;;;;;;;10322940;28;20091;-61
2021/08/27 10:01:47;;;;;;;10.85;9.40;;;;;;;;;;10322482;28;20079;-62
2021/08/27 10:06:47;;;;;;;10.65;9.63;;;;;;;;;;10322409;28;20518;-62
2021/08/27 10:11:45;;;;;;;11.25;9.95;;;;;;;;;;10322273;28;20079;-62
2021/08/27 10:16:45;;;;;;;9.93;9.05;;;;;;;;;;10321867;28;20091;-61
2021/08/27 10:21:50;;;;;;;10.23;8.45;;;;;;;;;;10321311;28;20505;-62
2021/08/27 10:26:48;;;;;;;11.88;10.27;;;;;;;;;;10321654;28;20056;-62
2021/08/27 10:31:48;;;;;;;9.82;8.88;;;;;;;;;;10321072;28;20072;-62
2021/08/27 10:36:51;;;;;;;8.10;7.40;;;;;;;;;;10321314;28;20041;-63
2021/08/27 10:41:50;;;;;;;8.25;7.45;;;;;;;;;;10321279;28;20048;-60
2021/08/27 10:47:05;;;;;;;10.10;8.05;;;;;;;;;;10319294;28;20437;-62
2021/08/27 10:52:22;;;;;;;11.00;7.18;;;;;;;;;;10320255;28;20520;-61
2021/08/27 10:57:21;;;;;;;8.05;6.30;;;;;;;;;;10320337;28;20088;-62
2021/08/27 11:02:19;;;;;;;10.10;6.50;;;;;;;;;;10318870;28;20072;-62
2021/08/27 11:07:20;;;;;;;6.65;6.05;;;;;;;;;;10320264;28;20036;-61
2021/08/27 11:12:21;;;;;;;7.72;5.97;;;;;;;;;;10320166;28;20048;-62
2021/08/27 11:17:20;;;;;;;6.15;5.28;;;;;;;;;;10319679;28;20091;-62
2021/08/27 11:22:24;;;;;;;6.80;5.70;;;;;;;;;;10319707;28;20064;-62
2021/08/27 11:27:22;;;;;;;5.38;4.88;;;;;;;;;;10319392;28;20040;-62
2021/08/27 11:32:30;;;;;;;7.40;4.80;;;;;;;;;;10318214;28;20045;-63
2021/08/27 11:37:32;;;;;;;6.50;4.60;;;;;;;;;;10319119;28;20457;-62
2021/08/27 11:42:30;;;;;;;6.88;6.18;;;;;;;;;;10319048;28;20076;-62
2021/08/27 11:47:29;;;;;;;7.80;4.47;;;;;;;;;;10318113;28;20092;-62
2021/08/27 11:52:28;;;;;;;4.90;4.40;;;;;;;;;;10318531;28;20045;-62
2021/08/27 11:57:28;;;;;;;4.63;4.03;;;;;;;;;;10317806;28;20080;-61
2021/08/27 12:02:27;;;;;;;7.95;4.65;;;;;;;;;;10318125;28;20045;-61
2021/08/27 12:07:27;;;;;;;7.30;5.35;;;;;;;;;;10317996;28;20391;-61
2021/08/27 12:12:33;;;;;;;5.82;5.10;;;;;;;;;;10317380;28;20044;-61
2021/08/27 12:17:32;;;;;;;5.93;5.32;;;;;;;;;;10317594;28;20509;-62
2021/08/27 12:22:32;;;;;;;7.88;5.50;;;;;;;;;;10317514;28;20500;-61
2021/08/27 12:27:30;;;;;;;7.93;5.95;;;;;;;;;;10317448;28;20044;-61
2021/08/27 12:32:30;;;;;;;10.18;5.70;;;;;;;;;;10316812;28;20040;-61
2021/08/27 12:37:28;;;;;;;8.77;5.95;;;;;;;;;;10317101;28;20509;-61
2021/08/27 12:42:31;;;;;;;6.67;6.07;;;;;;;;;;10316618;28;20090;-62
2021/08/27 12:47:32;;;;;;;8.10;6.13;;;;;;;;;;10316572;28;20650;-62
2021/08/27 12:52:30;;;;;;;6.32;5.60;;;;;;;;;;10316834;28;20040;-62
2021/08/27 12:57:29;;;;;;;12.00;5.55;;;;;;;;;;10316638;28;20509;-61
2021/08/27 13:02:27;;;;;;;11.93;7.03;;;;;;;;;;10316924;28;20053;-61
2021/08/27 13:07:29;;;;;;;6.22;5.63;;;;;;;;;;10316417;28;20508;-62
2021/08/27 13:12:31;;;;;;;5.60;5.03;;;;;;;;;;10316509;28;20504;-60
2021/08/27 13:17:30;;;;;;;9.75;5.88;;;;;;;;;;10316292;28;20079;-61
2021/08/27 13:22:38;;;;;;;8.68;7.15;;;;;;;;;;10316395;28;20424;-62
2021/08/27 13:27:38;;;;;;;6.00;5.32;;;;;;;;;;10316192;28;20043;-63
2021/08/27 13:32:41;;;;;;;7.95;5.45;;;;;;;;;;10316191;28;20474;-62
2021/08/27 13:37:41;;;;;;;7.27;5.97;;;;;;;;;;10315891;28;20549;-63
2021/08/27 13:42:39;;;;;;;12.05;6.80;;;;;;;;;;10315739;28;20417;-62
2021/08/27 13:47:38;;;;;;;7.78;5.95;;;;;;;;;;10315515;28;20429;-62
2021/08/27 13:52:36;;;;;;;6.32;5.35;;;;;;;;;;10316051;28;20478;-62
2021/08/27 13:57:36;;;;;;;7.82;5.70;;;;;;;;;;10322239;28;20474;-62
2021/08/27 14:02:34;;;;;;;8.02;5.90;;;;;;;;;;10322802;28;20076;-62
2021/08/27 14:07:33;;;;;;;6.82;5.93;;;;;;;;;;10322872;28;20056;-62
2021/08/27 14:12:31;;;;;;;6.70;5.57;;;;;;;;;;10322351;28;20041;-62
2021/08/27 14:17:31;;;;;;;15.38;6.03;;;;;;;;;;10322499;28;20076;-62
2021/08/27 14:22:29;;;;;;;9.65;5.30;;;;;;;;;;10321961;28;20067;-62
2021/08/27 14:27:28;;;;;;;8.98;5.72;;;;;;;;;;10322096;28;20048;-62
2021/08/27 14:32:26;;;;;;;8.02;6.07;;;;;;;;;;10311241;28;20068;-62
2021/08/27 14:37:26;;;;;;;13.57;6.55;;;;;;;;;;10300641;28;20467;-61
2021/08/27 14:42:24;;;;;;;7.05;4.93;;;;;;;;;;10300974;28;20064;-60
2021/08/27 14:47:22;;;;;;;7.80;5.32;;;;;;;;;;10299749;28;20073;-60
2021/08/27 14:52:21;;;;;;;9.45;5.28;;;;;;;;;;10295926;28;20501;-62
2021/08/27 14:57:22;;;;;;;8.70;5.43;;;;;;;;;;10292657;28;20084;-61
2021/08/27 15:02:21;;;;;;;5.20;4.68;;;;;;;;;;10291905;28;20083;-61
2021/08/27 15:07:19;;;;;;;8.18;5.20;;;;;;;;;;10294362;28;20071;-61
2021/08/27 15:12:22;;;;;;;27.52;17.73;;;;;;;;;;10289449;28;20099;-61
2021/08/27 15:17:22;;;;;;;25.83;16.07;;;;;;;;;;10317597;28;20505;-62
2021/08/27 15:22:20;;;;;;;7.72;5.05;;;;;;;;;;10319118;28;20037;-62
2021/08/27 15:27:18;;;;;;;6.13;5.35;;;;;;;;;;10319527;28;20044;-63
2021/08/27 15:32:17;;;;;;;8.13;5.07;;;;;;;;;;10319415;28;20037;-62
2021/08/27 15:37:17;;;;;;;11.52;6.07;;;;;;;;;;10318563;28;20080;-62
2021/08/27 15:42:15;;;;;;;5.47;4.97;;;;;;;;;;10318804;28;20036;-62
2021/08/27 15:47:16;;;;;;;6.03;5.43;;;;;;;;;;10318446;28;20072;-62
2021/08/27 15:52:15;;;;;;;6.65;4.50;;;;;;;;;;10318450;28;20079;-62
2021/08/27 15:57:14;;;;;;;10.38;4.95;;;;;;;;;;10318124;28;20042;-62
2021/08/27 16:02:13;;;;;;;9.95;4.53;;;;;;;;;;10318034;28;20078;-62
2021/08/27 16:07:11;;;;;;;5.05;4.43;;;;;;;;;;10318084;28;20060;-62
2021/08/27 16:12:10;;;;;;;10.77;4.75;;;;;;;;;;10317630;28;20052;-62
2021/08/27 16:17:09;;;;;;;9.65;4.80;;;;;;;;;;10317442;28;20450;-63
2021/08/27 16:22:08;;;;;;;8.65;5.75;;;;;;;;;;10317307;28;20512;-63
2021/08/27 16:27:06;;;;;;;5.50;4.88;;;;;;;;;;10317643;28;20044;-62
2021/08/27 16:32:05;;;;;;;8.85;5.65;;;;;;;;;;10317413;28;20056;-62
2021/08/27 16:37:05;;;;;;;7.88;5.72;;;;;;;;;;10315715;28;20048;-62
2021/08/27 16:42:04;;;;;;;12.23;5.45;;;;;;;;;;10316443;28;20040;-61
2021/08/27 16:47:02;;;;;;;6.45;5.75;;;;;;;;;;10303875;28;20092;-61
2021/08/27 16:52:00;;;;;;;11.77;5.30;;;;;;;;;;10288090;28;20076;-61
2021/08/27 16:57:00;;;;;;;8.75;7.05;;;;;;;;;;10307962;28;20087;-60
2021/08/27 17:01:58;;;;;;;7.72;5.88;;;;;;;;;;10305652;28;20072;-61
2021/08/27 17:06:57;;;;;;;6.68;6.05;;;;;;;;;;10307431;28;20068;-61
2021/08/27 17:11:55;;;;;;;9.88;6.50;;;;;;;;;;10314077;28;20071;-61
2021/08/27 17:16:55;;;;;;;7.85;6.30;;;;;;;;;;10315596;28;20040;-59
2021/08/27 17:21:53;;;;;;;8.70;7.00;;;;;;;;;;10315744;28;20048;-60
2021/08/27 17:26:51;;;;;;;11.00;8.27;;;;;;;;;;10316578;28;20047;-60
2021/08/27 17:31:50;;;;;;;8.70;7.70;;;;;;;;;;10323748;28;20052;-61
2021/08/27 17:36:49;;;;;;;15.75;11.13;;;;;;;;;;10323539;28;20056;-60
2021/08/27 17:41:48;;;;;;;13.68;9.07;;;;;;;;;;10323415;28;20043;-61
2021/08/27 17:46:46;;;;;;;10.95;8.68;;;;;;;;;;10322867;28;20060;-61
2021/08/27 17:51:44;;;;;;;9.48;8.40;;;;;;;;;;10322945;28;20047;-60
2021/08/27 17:56:44;;;;;;;14.65;7.18;;;;;;;;;;10322722;28;20079;-60
2021/08/27 18:01:46;;;;;;;;;;;;;;;;;;10323596;28;20037;-61
2021/08/27 18:06:44;;;;;;;13.45;9.75;;;;;;;;;;10322568;28;19958;-61
2021/08/27 18:11:44;;;;;;;18.35;14.63;;;;;;;;;;10322153;28;20068;-61
2021/08/27 18:16:42;;;;;;;11.52;9.02;;;;;;;;;;10321982;28;20090;-61
2021/08/27 18:21:40;;;;;;;16.02;9.77;;;;;;;;;;10321848;28;20077;-61
2021/08/27 18:26:39;;;;;;;11.57;9.52;;;;;;;;;;10321776;28;20078;-60
2021/08/27 18:31:38;;;;;;;9.75;8.65;;;;;;;;;;10322002;28;20051;-60
2021/08/27 18:36:37;;;;;;;10.25;8.38;;;;;;;;;;10321408;28;20068;-61
2021/08/27 18:41:35;;;;;;;8.95;8.05;;;;;;;;;;10320160;28;20043;-61
2021/08/27 18:46:34;;;;;;;11.40;8.88;;;;;;;;;;10320679;28;20065;-61
2021/08/27 18:51:33;;;;;;;14.32;8.73;;;;;;;;;;10320759;28;20045;-61
2021/08/27 18:56:32;;;;;;;12.75;7.53;;;;;;;;;;10320738;28;20072;-61
2021/08/27 19:01:31;;;;;;;12.25;9.85;;;;;;;;;;10320766;28;20052;-61
2021/08/27 19:06:29;;;;;;;10.05;8.65;;;;;;;;;;10320225;28;20040;-61
2021/08/27 19:11:30;;;;;;;13.32;8.90;;;;;;;;;;10319777;28;20039;-61
2021/08/27 19:16:28;;;;;;;8.75;7.10;;;;;;;;;;10319619;28;20051;-61
2021/08/27 19:21:26;;;;;;;11.57;10.02;;;;;;;;;;10319443;28;20043;-61
2021/08/27 19:26:25;;;;;;;8.63;7.63;;;;;;;;;;10319563;28;20052;-61
2021/08/27 19:31:25;;;;;;;10.52;7.10;;;;;;;;;;10319082;28;20044;-61
2021/08/27 19:36:23;;;;;;;9.48;8.50;;;;;;;;;;10318886;28;20044;-61
2021/08/27 19:41:22;;;;;;;13.77;8.35;;;;;;;;;;10318393;28;20059;-61
2021/08/27 19:46:20;;;;;;;10.00;7.63;;;;;;;;;;10318196;28;20052;-61
2021/08/27 19:51:20;;;;;;;10.38;9.10;;;;;;;;;;10317601;28;20297;-61
2021/08/27 19:56:19;;;;;;;12.38;8.13;;;;;;;;;;10318439;28;20076;-61
2021/08/27 20:01:17;;;;;;;11.27;9.07;;;;;;;;;;10318026;28;20470;-61
2021/08/27 20:06:16;;;;;;;11.85;8.93;;;;;;;;;;10317634;28;20048;-61
2021/08/27 20:11:15;;;;;;;11.27;6.72;;;;;;;;;;10317518;28;20462;-61
2021/08/27 20:16:14;;;;;;;15.57;7.85;;;;;;;;;;10317753;28;20057;-60
2021/08/27 20:21:12;;;;;;;8.63;7.32;;;;;;;;;;10317295;28;20086;-61
2021/08/27 20:26:12;;;;;;;12.60;7.40;;;;;;;;;;10317008;28;20043;-60
2021/08/27 20:31:12;;;;;;;13.45;7.50;;;;;;;;;;10317084;28;20083;-60
2021/08/27 20:36:10;;;;;;;9.38;7.63;;;;;;;;;;10316962;28;20045;-61
2021/08/27 20:41:09;;;;;;;8.15;7.35;;;;;;;;;;10316285;28;20072;-61
2021/08/27 20:46:07;;;;;;;8.75;7.43;;;;;;;;;;10316274;28;20051;-61
2021/08/27 20:51:07;;;;;;;14.10;6.95;;;;;;;;;;10316533;28;20040;-61
2021/08/27 20:56:05;;;;;;;9.85;6.40;;;;;;;;;;10316839;28;20050;-60
2021/08/27 21:01:03;;;;;;;10.05;6.50;;;;;;;;;;10317008;28;20079;-60
2021/08/27 21:06:02;;;;;;;11.63;6.90;;;;;;;;;;10329632;28;20044;-61
2021/08/27 21:11:02;;;;;;;14.90;6.93;;;;;;;;;;10330019;28;20061;-61
2021/08/27 21:16:00;;;;;;;7.43;6.13;;;;;;;;;;10329624;28;20044;-61
2021/08/27 21:20:59;;;;;;;12.18;6.75;;;;;;;;;;10329875;28;20464;-60
2021/08/27 21:25:57;;;;;;;7.57;5.15;;;;;;;;;;10329547;28;20314;-61
2021/08/27 21:30:56;;;;;;;12.60;6.00;;;;;;;;;;10329471;28;20047;-61
2021/08/27 21:35:55;;;;;;;7.32;5.82;;;;;;;;;;10329223;28;20076;-60
2021/08/27 21:40:53;;;;;;;8.10;5.45;;;;;;;;;;10329422;28;20084;-60
2021/08/27 21:45:51;;;;;;;11.82;5.88;;;;;;;;;;10328987;28;20048;-61
2021/08/27 21:50:51;;;;;;;7.35;6.00;;;;;;;;;;10329151;28;20485;-61
2021/08/27 21:55:50;;;;;;;10.77;6.82;;;;;;;;;;10328893;28;20037;-61
2021/08/27 22:00:48;;;;;;;10.98;7.30;;;;;;;;;;10329056;28;20080;-61
2021/08/27 22:05:47;;;;;;;8.57;6.85;;;;;;;;;;10328594;28;20055;-61
2021/08/27 22:10:46;;;;;;;12.18;6.63;;;;;;;;;;10328981;28;20052;-61
2021/08/27 22:15:44;;;;;;;7.75;5.80;;;;;;;;;;10307135;28;20091;-59
2021/08/27 22:20:44;;;;;;;8.65;5.45;;;;;;;;;;10290423;28;20068;-61
2021/08/27 22:25:43;;;;;;;6.72;5.57;;;;;;;;;;10294062;28;20068;-59
2021/08/27 22:30:43;;;;;;;6.00;5.13;;;;;;;;;;10291568;28;20053;-61
2021/08/27 22:35:41;;;;;;;7.13;5.53;;;;;;;;;;10280977;28;20060;-60
2021/08/27 22:40:40;;;;;;;7.78;5.70;;;;;;;;;;10280869;28;20060;-61
2021/08/27 22:45:38;;;;;;;6.93;5.80;;;;;;;;;;10280096;28;20442;-60
2021/08/27 22:50:38;;;;;;;6.88;5.53;;;;;;;;;;10280386;28;20075;-61
2021/08/27 22:55:42;;;;;;;7.78;6.25;;;;;;;;;;10280352;28;20053;-60
2021/08/27 23:00:41;;;;;;;12.52;6.00;;;;;;;;;;10279713;28;20089;-60
2021/08/27 23:05:41;;;;;;;8.40;6.88;;;;;;;;;;10279591;28;20073;-60
2021/08/27 23:10:39;;;;;;;11.48;8.02;;;;;;;;;;10279760;28;20076;-60
2021/08/27 23:15:39;;;;;;;12.40;9.07;;;;;;;;;;10279196;28;20048;-60
2021/08/27 23:20:37;;;;;;;10.13;9.13;;;;;;;;;;10279174;28;20087;-60
2021/08/27 23:25:38;;;;;;;9.77;8.77;;;;;;;;;;10278821;28;20080;-60
2021/08/27 23:30:36;;;;;;;15.10;9.80;;;;;;;;;;10278829;28;20052;-60
2021/08/27 23:35:34;;;;;;;15.15;11.13;;;;;;;;;;10277903;28;20071;-61
2021/08/27 23:40:33;;;;;;;14.68;11.98;;;;;;;;;;10277847;28;20072;-59
2021/08/27 23:45:32;;;;;;;14.82;11.77;;;;;;;;;;10277660;28;20045;-60
2021/08/27 23:50:31;;;;;;;17.02;13.75;;;;;;;;;;10277930;28;20056;-60
2021/08/27 23:55:29;;;;;;;16.58;14.57;;;;;;;;;;10277489;28;20052;-60
